Time;durP1;ratioP1;P1;durP2;ratioP2;P2;SDS_P1;SDS_P2;PMS_P1;PMS_P2;Temp;Humidity;BMP_temperature;BMP_pressure;BME280_temperature;BME280_humidity;BME280_pressure;Samples;Min_cycle;Max_cycle;Signal;HPM_P1;HPM_P2
2022/06/25 00:01:09;;;;;;;21.65;18.63;;;18.50;99.90;;;;;;5048383;28;20033;-76
2022/06/25 00:03:36;;;;;;;18.85;16.95;;;18.50;99.90;;;;;;5060172;28;20476;-76
2022/06/25 00:06:03;;;;;;;19.13;16.75;;;18.50;99.90;;;;;;5065929;28;20115;-76
2022/06/25 00:08:28;;;;;;;19.75;16.48;;;18.50;99.90;;;;;;5057243;28;20041;-76
2022/06/25 00:10:54;;;;;;;18.02;16.23;;;18.50;99.90;;;;;;5060499;28;20059;-76
2022/06/25 00:13:21;;;;;;;17.95;16.05;;;18.50;99.90;;;;;;5058080;28;20037;-76
2022/06/25 00:15:47;;;;;;;18.17;16.23;;;18.50;99.90;;;;;;5057123;28;20512;-76
2022/06/25 00:18:14;;;;;;;18.05;16.15;;;18.50;99.90;;;;;;5057941;28;20557;-76
2022/06/25 00:20:40;;;;;;;18.60;15.68;;;18.50;99.90;;;;;;5053149;28;20036;-76
2022/06/25 00:23:06;;;;;;;17.88;15.15;;;18.50;99.90;;;;;;5059083;28;20044;-76
2022/06/25 00:25:32;;;;;;;17.30;15.52;;;18.40;99.90;;;;;;5052473;28;20037;-76
2022/06/25 00:27:58;;;;;;;18.88;15.32;;;18.40;99.90;;;;;;5048851;28;20059;-76
2022/06/25 00:30:24;;;;;;;17.35;15.63;;;18.40;99.90;;;;;;5032680;28;20036;-76
2022/06/25 00:32:50;;;;;;;17.58;15.15;;;18.40;99.90;;;;;;5063555;28;20041;-76
2022/06/25 00:35:17;;;;;;;17.45;14.82;;;18.40;99.90;;;;;;5057513;28;20093;-76
2022/06/25 00:37:42;;;;;;;16.80;15.00;;;18.40;99.90;;;;;;5058811;28;20161;-75
2022/06/25 00:40:09;;;;;;;15.68;13.98;;;18.40;99.90;;;;;;5064061;28;20056;-76
2022/06/25 00:42:35;;;;;;;16.10;14.07;;;18.30;99.90;;;;;;5063896;28;20111;-76
2022/06/25 00:45:00;;;;;;;15.68;13.85;;;18.40;99.90;;;;;;5065408;28;20136;-76
2022/06/25 00:47:26;;;;;;;16.20;14.07;;;18.30;99.90;;;;;;5064552;28;20060;-76
2022/06/25 00:49:52;;;;;;;15.38;12.57;;;18.30;99.90;;;;;;5039943;28;20034;-76
2022/06/25 00:52:20;;;;;;;14.82;13.02;;;18.30;99.90;;;;;;5072785;22;20552;-76
2022/06/25 00:54:53;;;;;;;13.95;12.27;;;18.30;99.90;;;;;;5052276;28;20033;-76
2022/06/25 00:57:24;;;;;;;14.15;12.50;;;18.30;99.90;;;;;;5049391;28;20049;-76
2022/06/25 00:59:52;;;;;;;13.25;11.90;;;18.20;99.90;;;;;;5030820;28;20032;-76
2022/06/25 01:02:22;;;;;;;12.85;11.02;;;18.20;99.90;;;;;;5051766;28;20130;-76
2022/06/25 01:04:48;;;;;;;13.80;11.48;;;18.20;99.90;;;;;;5044815;28;20403;-76
2022/06/25 01:07:14;;;;;;;13.35;11.38;;;18.20;99.90;;;;;;5036927;28;20471;-76
2022/06/25 01:09:40;;;;;;;11.60;10.40;;;18.20;99.90;;;;;;5052390;28;20041;-76
2022/06/25 01:12:06;;;;;;;13.23;10.60;;;18.20;99.90;;;;;;5044752;28;20049;-76
2022/06/25 01:14:32;;;;;;;11.98;10.27;;;18.00;99.90;;;;;;5039435;28;20548;-76
2022/06/25 01:16:58;;;;;;;11.10;9.77;;;18.20;99.90;;;;;;5038165;28;20132;-76
2022/06/25 01:19:24;;;;;;;13.43;10.23;;;18.20;99.90;;;;;;5038649;28;20125;-76
2022/06/25 01:21:49;;;;;;;11.55;9.68;;;18.20;99.90;;;;;;5051926;28;20087;-76
2022/06/25 01:24:15;;;;;;;11.52;9.13;;;18.10;99.90;;;;;;5051439;28;20049;-76
2022/06/25 01:26:42;;;;;;;11.23;9.25;;;18.10;99.90;;;;;;5028750;28;20041;-76
2022/06/25 01:29:09;;;;;;;11.27;9.07;;;18.10;99.90;;;;;;5039671;28;20136;-76
2022/06/25 01:31:36;;;;;;;11.35;9.55;;;18.10;99.90;;;;;;5028499;28;20037;-76
2022/06/25 01:34:02;;;;;;;10.10;8.68;;;18.00;99.90;;;;;;5034507;28;20069;-76
2022/06/25 01:36:28;;;;;;;10.35;9.25;;;18.00;99.90;;;;;;5039088;28;20507;-76
2022/06/25 01:38:54;;;;;;;11.50;9.65;;;18.00;99.90;;;;;;5035296;28;20136;-76
2022/06/25 01:41:20;;;;;;;11.55;9.55;;;18.00;99.90;;;;;;5038363;28;20037;-76
2022/06/25 01:43:46;;;;;;;10.82;9.00;;;18.00;99.90;;;;;;5046317;28;20037;-76
2022/06/25 01:46:12;;;;;;;10.07;9.07;;;18.00;99.90;;;;;;5047659;28;20036;-76
2022/06/25 01:48:38;;;;;;;10.05;8.65;;;17.90;99.90;;;;;;5044571;28;20092;-76
2022/06/25 01:51:03;;;;;;;10.18;9.18;;;17.90;99.90;;;;;;5036063;28;20080;-76
2022/06/25 01:53:29;;;;;;;11.27;8.90;;;17.90;99.90;;;;;;5048172;28;20037;-76
2022/06/25 01:55:55;;;;;;;9.85;8.70;;;17.90;99.90;;;;;;5048690;28;20056;-76
2022/06/25 01:58:21;;;;;;;11.40;8.50;;;17.90;99.90;;;;;;5048174;28;20401;-76
2022/06/25 02:00:47;;;;;;;9.63;8.38;;;17.90;99.90;;;;;;5032683;28;20037;-76
2022/06/25 02:03:14;;;;;;;11.82;8.18;;;17.90;99.90;;;;;;5043947;28;20061;-76
2022/06/25 02:05:58;;;;;;;10.20;8.75;;;17.90;99.90;;;;;;5041483;28;20404;-76
2022/06/25 02:08:44;;;;;;;9.40;8.23;;;17.80;99.90;;;;;;5048948;28;20079;-76
2022/06/25 02:11:10;;;;;;;8.48;7.60;;;17.80;99.90;;;;;;5040181;28;20493;-76
2022/06/25 02:13:36;;;;;;;11.05;8.60;;;17.80;99.90;;;;;;5039278;28;20091;-76
2022/06/25 02:16:04;;;;;;;8.50;7.55;;;17.80;99.90;;;;;;5039938;28;20033;-76
2022/06/25 02:18:29;;;;;;;10.20;8.15;;;17.80;99.90;;;;;;5047670;28;20041;-76
2022/06/25 02:20:55;;;;;;;9.30;7.53;;;17.80;99.90;;;;;;5032314;28;20041;-76
2022/06/25 02:23:22;;;;;;;12.05;7.90;;;17.80;99.90;;;;;;5039114;28;20124;-76
2022/06/25 02:25:47;;;;;;;8.15;7.35;;;17.80;99.90;;;;;;5044195;28;20041;-76
2022/06/25 02:28:17;;;;;;;9.57;8.18;;;17.80;99.90;;;;;;5047309;28;20037;-76
2022/06/25 02:30:43;;;;;;;9.18;7.30;;;17.70;99.90;;;;;;5030011;28;20052;-76
2022/06/25 02:33:11;;;;;;;8.38;7.57;;;17.80;99.90;;;;;;5064446;28;20037;-76
2022/06/25 02:35:41;;;;;;;8.63;7.72;;;17.70;99.90;;;;;;5040322;28;20498;-76
2022/06/25 02:38:08;;;;;;;10.20;8.02;;;17.70;99.90;;;;;;5032708;28;20041;-76
2022/06/25 02:40:33;;;;;;;8.98;7.80;;;17.70;99.90;;;;;;5043862;28;20493;-76
2022/06/25 02:43:01;;;;;;;8.57;7.68;;;17.70;99.90;;;;;;5048610;28;20048;-76
2022/06/25 02:45:27;;;;;;;9.63;7.63;;;17.70;99.90;;;;;;5036298;28;20080;-76
2022/06/25 02:47:52;;;;;;;9.55;7.50;;;17.70;99.90;;;;;;5038043;28;20037;-76
2022/06/25 02:50:18;;;;;;;9.65;8.00;;;17.70;99.90;;;;;;5038934;28;20042;-76
2022/06/25 02:52:43;;;;;;;8.40;7.60;;;17.70;99.90;;;;;;5046224;28;20124;-76
2022/06/25 02:55:09;;;;;;;9.27;7.97;;;17.60;99.90;;;;;;5041402;28;20392;-76
2022/06/25 03:00:19;;;;;;;9.85;8.10;;;17.60;99.90;;;;;;5049265;28;20095;-76
2022/06/25 03:02:45;;;;;;;8.80;7.90;;;17.60;99.90;;;;;;5049675;28;20406;-76
2022/06/25 03:05:11;;;;;;;10.90;8.27;;;17.60;99.90;;;;;;5039874;28;20047;-76
2022/06/25 03:07:37;;;;;;;9.43;8.43;;;17.60;99.90;;;;;;5040691;28;20045;-76
2022/06/25 03:10:03;;;;;;;9.13;8.23;;;17.60;99.90;;;;;;5044776;28;20028;-75
2022/06/25 03:12:29;;;;;;;9.63;8.32;;;17.60;99.90;;;;;;5049838;28;20484;-76
2022/06/25 03:14:54;;;;;;;9.80;8.35;;;17.60;99.90;;;;;;5049642;28;20067;-76
2022/06/25 03:17:20;;;;;;;9.23;8.32;;;17.60;99.90;;;;;;5047649;28;20040;-76
2022/06/25 03:19:45;;;;;;;9.30;8.23;;;17.60;99.90;;;;;;5041323;28;20549;-76
2022/06/25 03:22:11;;;;;;;11.10;7.85;;;17.60;99.90;;;;;;5039093;28;20033;-76
2022/06/25 03:24:37;;;;;;;10.55;8.20;;;17.50;99.90;;;;;;5038978;28;20183;-76
2022/06/25 03:27:03;;;;;;;13.63;8.52;;;17.50;99.90;;;;;;5047064;28;20036;-76
2022/06/25 03:29:28;;;;;;;13.52;8.75;;;17.50;99.90;;;;;;5027826;28;20034;-76
2022/06/25 03:31:54;;;;;;;10.93;7.70;;;17.50;99.90;;;;;;5047857;28;20390;-76
2022/06/25 03:34:19;;;;;;;10.90;8.20;;;17.50;99.90;;;;;;5049537;28;20079;-76
2022/06/25 03:36:45;;;;;;;11.02;8.45;;;17.50;99.90;;;;;;5046502;28;20033;-76
2022/06/25 03:39:11;;;;;;;9.68;8.20;;;17.50;99.90;;;;;;5041615;28;20484;-76
2022/06/25 03:41:36;;;;;;;10.52;8.68;;;17.50;99.90;;;;;;5049310;28;20040;-76
2022/06/25 03:44:07;;;;;;;9.52;8.52;;;17.40;99.90;;;;;;5047692;28;20052;-76
2022/06/25 03:46:35;;;;;;;10.57;9.10;;;17.40;99.90;;;;;;5036840;28;20401;-76
2022/06/25 03:49:01;;;;;;;10.75;8.15;;;17.40;99.90;;;;;;5035122;28;20052;-76
2022/06/25 03:51:27;;;;;;;11.77;7.97;;;17.40;99.90;;;;;;5041820;28;20041;-76
2022/06/25 03:53:54;;;;;;;9.45;8.43;;;17.40;99.90;;;;;;5040805;28;20041;-76
2022/06/25 03:56:20;;;;;;;10.60;8.30;;;17.40;99.90;;;;;;5046714;28;20049;-76
2022/06/25 03:58:46;;;;;;;11.32;8.55;;;17.40;99.90;;;;;;5036423;28;20116;-76
2022/06/25 04:01:12;;;;;;;11.30;8.73;;;17.40;99.90;;;;;;5042498;28;20413;-76
2022/06/25 04:03:39;;;;;;;10.00;8.57;;;17.30;99.90;;;;;;5044663;28;20037;-76
2022/06/25 04:06:05;;;;;;;9.18;8.20;;;17.30;99.90;;;;;;5052165;28;20501;-76
2022/06/25 04:08:31;;;;;;;11.55;8.70;;;17.30;99.90;;;;;;5048528;28;20519;-76
2022/06/25 04:10:57;;;;;;;14.68;10.18;;;17.30;99.90;;;;;;5043467;28;20041;-76
2022/06/25 04:13:23;;;;;;;12.95;8.50;;;17.30;99.90;;;;;;5044130;28;20124;-77
2022/06/25 04:15:48;;;;;;;10.35;8.68;;;17.30;99.90;;;;;;5041942;28;20047;-76
2022/06/25 04:18:14;;;;;;;9.82;8.60;;;17.30;99.90;;;;;;5048232;28;20044;-76
2022/06/25 04:20:39;;;;;;;10.55;8.52;;;17.30;99.90;;;;;;5045478;28;20043;-76
2022/06/25 04:23:05;;;;;;;12.82;9.60;;;17.30;99.90;;;;;;5051862;28;20047;-76
2022/06/25 04:25:31;;;;;;;10.85;8.98;;;17.30;99.90;;;;;;5042465;28;20053;-76
2022/06/25 04:30:41;;;;;;;10.88;9.02;;;17.30;99.90;;;;;;5050187;28;20102;-76
2022/06/25 04:33:06;;;;;;;9.93;8.73;;;17.30;99.90;;;;;;5049758;28;20041;-76
2022/06/25 04:35:32;;;;;;;9.73;8.40;;;17.30;99.90;;;;;;5052662;28;20515;-76
2022/06/25 04:37:57;;;;;;;10.30;8.50;;;17.30;99.90;;;;;;5047581;28;20045;-76
2022/06/25 04:40:23;;;;;;;11.77;9.13;;;17.30;99.90;;;;;;5029785;28;20065;-76
2022/06/25 04:42:49;;;;;;;9.85;8.85;;;17.30;99.90;;;;;;5047035;28;20072;-76
2022/06/25 04:45:15;;;;;;;13.40;9.00;;;17.30;99.90;;;;;;5042302;28;20072;-76
2022/06/25 04:47:40;;;;;;;10.77;8.32;;;17.40;99.90;;;;;;5052493;28;20041;-76
2022/06/25 04:50:07;;;;;;;11.48;8.52;;;17.30;99.90;;;;;;5048050;28;20037;-76
2022/06/25 04:52:33;;;;;;;11.75;8.57;;;17.40;99.90;;;;;;5047188;28;20374;-76
2022/06/25 04:54:59;;;;;;;9.65;8.65;;;17.40;99.90;;;;;;5048844;28;20036;-76
2022/06/25 04:57:25;;;;;;;10.95;8.57;;;17.40;99.90;;;;;;5045849;28;20052;-76
2022/06/25 04:59:51;;;;;;;10.70;8.70;;;17.40;99.90;;;;;;5036542;28;20049;-76
2022/06/25 05:02:16;;;;;;;10.75;9.02;;;17.40;99.90;;;;;;5036987;28;20500;-76
2022/06/25 05:04:42;;;;;;;11.75;9.07;;;17.50;99.90;;;;;;5046586;28;20488;-76
2022/06/25 05:07:08;;;;;;;9.15;8.23;;;17.40;99.90;;;;;;5042413;28;20524;-76
2022/06/25 05:09:33;;;;;;;10.35;8.48;;;17.40;99.90;;;;;;5043112;28;20049;-77
2022/06/25 05:11:59;;;;;;;12.88;9.85;;;17.50;99.90;;;;;;5018309;28;20077;-76
2022/06/25 05:14:25;;;;;;;10.50;9.40;;;17.50;99.90;;;;;;5040003;28;20061;-76
2022/06/25 05:16:51;;;;;;;13.13;9.27;;;17.50;99.90;;;;;;5039599;28;20139;-76
2022/06/25 05:19:16;;;;;;;12.15;9.60;;;17.50;99.90;;;;;;5042044;28;20125;-76
2022/06/25 05:21:42;;;;;;;12.68;8.98;;;17.50;99.90;;;;;;5047006;28;20049;-76
2022/06/25 05:24:08;;;;;;;11.13;9.05;;;17.50;99.90;;;;;;5048586;28;20044;-76
2022/06/25 05:26:33;;;;;;;12.20;9.00;;;17.50;99.90;;;;;;5040894;28;20045;-77
2022/06/25 05:28:59;;;;;;;11.45;9.02;;;17.60;99.90;;;;;;5044628;28;20048;-76
2022/06/25 05:31:25;;;;;;;9.82;8.52;;;17.50;99.90;;;;;;5043414;28;20033;-76
2022/06/25 05:33:50;;;;;;;11.38;9.38;;;17.50;99.90;;;;;;5051722;28;20088;-76
2022/06/25 05:36:17;;;;;;;10.52;9.05;;;17.60;99.90;;;;;;5048906;28;20041;-76
2022/06/25 05:38:43;;;;;;;9.52;8.45;;;17.60;99.90;;;;;;5043937;28;20041;-76
2022/06/25 05:41:08;;;;;;;10.07;8.73;;;17.70;99.90;;;;;;5040760;28;20405;-76
2022/06/25 05:43:35;;;;;;;9.27;8.10;;;17.70;99.90;;;;;;5041076;28;20167;-76
2022/06/25 05:46:02;;;;;;;11.27;8.60;;;17.70;99.90;;;;;;5051114;28;20116;-76
2022/06/25 05:48:27;;;;;;;12.02;8.15;;;17.80;99.90;;;;;;5047338;28;20041;-76
2022/06/25 05:50:53;;;;;;;12.73;8.23;;;17.80;99.90;;;;;;5048949;28;20714;-77
2022/06/25 05:53:19;;;;;;;9.80;7.60;;;17.80;99.90;;;;;;5033019;28;20065;-76
2022/06/25 05:55:44;;;;;;;10.80;7.90;;;17.90;99.90;;;;;;5042443;28;20554;-76
2022/06/25 05:58:10;;;;;;;11.70;7.43;;;18.00;99.90;;;;;;5042404;28;20325;-76
2022/06/25 06:00:35;;;;;;;10.68;7.35;;;18.00;99.90;;;;;;5040077;28;20046;-77
2022/06/25 06:03:01;;;;;;;10.18;7.18;;;18.00;99.90;;;;;;5047977;28;20091;-76
2022/06/25 06:05:27;;;;;;;9.93;7.63;;;18.10;99.90;;;;;;5042196;28;20037;-76
2022/06/25 06:07:53;;;;;;;10.05;6.95;;;18.10;99.90;;;;;;5050398;28;20118;-75
2022/06/25 06:10:18;;;;;;;9.95;6.95;;;18.10;99.90;;;;;;5033406;28;20041;-76
2022/06/25 06:12:44;;;;;;;9.23;6.18;;;18.10;99.90;;;;;;5045823;28;20040;-77
2022/06/25 06:15:10;;;;;;;9.55;6.43;;;18.20;99.90;;;;;;5023149;28;20108;-76
2022/06/25 06:17:36;;;;;;;7.95;5.82;;;18.20;99.90;;;;;;5042721;28;20080;-76
2022/06/25 06:20:02;;;;;;;11.93;7.05;;;18.30;99.90;;;;;;5040471;28;20160;-76
2022/06/25 06:22:28;;;;;;;8.40;6.00;;;18.30;99.90;;;;;;5043423;28;20464;-77
2022/06/25 06:24:53;;;;;;;9.20;6.07;;;18.40;99.90;;;;;;5035985;28;20128;-76
2022/06/25 06:27:19;;;;;;;9.05;6.10;;;18.50;99.90;;;;;;5044202;28;20076;-76
2022/06/25 06:29:45;;;;;;;8.18;5.43;;;18.50;99.90;;;;;;5050569;28;20041;-77
2022/06/25 06:32:10;;;;;;;8.18;5.22;;;18.60;99.90;;;;;;5043580;28;20558;-77
2022/06/25 06:34:36;;;;;;;7.18;5.30;;;18.60;99.90;;;;;;5027195;28;20052;-77
2022/06/25 06:37:02;;;;;;;8.13;5.38;;;18.70;99.90;;;;;;5036042;28;20413;-76
2022/06/25 06:39:28;;;;;;;9.57;5.57;;;18.80;99.90;;;;;;5037614;28;20116;-75
2022/06/25 06:41:53;;;;;;;7.45;5.15;;;18.80;99.90;;;;;;5032094;28;20175;-76
2022/06/25 06:44:19;;;;;;;11.55;5.30;;;18.90;99.90;;;;;;5042292;28;20040;-77
2022/06/25 06:46:44;;;;;;;6.70;4.68;;;18.90;99.90;;;;;;5049234;28;20544;-76
2022/06/25 06:49:10;;;;;;;6.85;4.32;;;18.90;99.90;;;;;;5028687;28;20130;-77
2022/06/25 06:51:36;;;;;;;7.28;4.25;;;19.00;99.90;;;;;;5031358;28;20048;-77
2022/06/25 06:54:02;;;;;;;6.35;4.40;;;19.10;99.90;;;;;;5054497;22;20069;-75
2022/06/25 06:56:27;;;;;;;7.05;4.70;;;19.10;99.90;;;;;;5035986;28;20033;-76
2022/06/25 06:58:53;;;;;;;6.50;4.35;;;19.20;99.90;;;;;;5055126;28;20411;-76
2022/06/25 07:01:19;;;;;;;6.60;4.35;;;19.30;99.90;;;;;;5041769;28;20033;-76
2022/06/25 07:03:45;;;;;;;8.60;4.50;;;19.30;99.90;;;;;;5041723;28;20064;-75
2022/06/25 07:06:11;;;;;;;5.60;3.70;;;19.30;99.90;;;;;;5032231;28;20037;-76
2022/06/25 07:08:36;;;;;;;6.70;4.18;;;19.30;99.90;;;;;;5044793;28;20071;-76
2022/06/25 07:11:27;;;;;;;5.88;3.85;;;19.40;99.90;;;;;;5049915;28;20036;-77
2022/06/25 07:13:47;;;;;;;8.82;4.25;;;19.40;99.90;;;;;;5047694;28;20040;-76
2022/06/25 07:16:13;;;;;;;6.93;3.65;;;19.40;99.90;;;;;;5047023;28;20110;-76
2022/06/25 07:18:39;;;;;;;6.13;3.88;;;19.50;99.90;;;;;;5032902;28;20132;-76
2022/06/25 07:21:04;;;;;;;7.10;3.72;;;19.50;99.90;;;;;;5029867;28;20701;-77
2022/06/25 07:23:30;;;;;;;10.27;4.00;;;19.50;99.90;;;;;;5047059;28;20075;-76
2022/06/25 07:25:55;;;;;;;6.18;3.45;;;19.60;99.90;;;;;;5046418;28;20167;-76
2022/06/25 07:28:21;;;;;;;8.05;3.80;;;19.60;99.90;;;;;;5048273;28;20472;-76
2022/06/25 07:30:47;;;;;;;6.40;3.00;;;19.60;99.90;;;;;;5048479;28;20408;-75
2022/06/25 07:33:13;;;;;;;7.10;3.38;;;19.60;99.90;;;;;;5046550;28;20489;-75
2022/06/25 07:35:38;;;;;;;5.70;3.35;;;19.60;99.90;;;;;;5046651;28;20048;-75
2022/06/25 07:38:04;;;;;;;8.57;3.55;;;19.60;99.90;;;;;;5030742;28;20051;-76
2022/06/25 07:40:30;;;;;;;5.80;3.50;;;19.70;99.90;;;;;;5043629;28;20120;-75
2022/06/25 07:42:56;;;;;;;7.57;3.35;;;19.70;99.90;;;;;;5047750;28;20072;-76
2022/06/25 07:45:22;;;;;;;5.70;3.35;;;19.70;99.90;;;;;;5041863;28;20147;-75
2022/06/25 07:47:47;;;;;;;4.95;3.30;;;19.80;99.90;;;;;;5048688;28;20037;-75
2022/06/25 07:52:57;;;;;;;8.15;2.88;;;19.90;99.90;;;;;;5050462;28;20685;-76
2022/06/25 07:55:23;;;;;;;6.35;3.55;;;19.90;99.90;;;;;;5053073;28;20045;-75
2022/06/25 07:57:49;;;;;;;7.65;3.30;;;20.00;99.90;;;;;;5053427;28;20049;-75
2022/06/25 08:00:15;;;;;;;5.15;3.03;;;20.00;99.90;;;;;;5042409;28;20048;-76
2022/06/25 08:02:41;;;;;;;8.27;3.47;;;20.10;99.90;;;;;;5049023;28;20033;-76
2022/06/25 08:05:08;;;;;;;7.35;3.00;;;20.10;99.90;;;;;;5053748;28;20399;-76
2022/06/25 08:07:34;;;;;;;6.22;2.88;;;20.20;99.90;;;;;;5039110;28;20041;-76
2022/06/25 08:10:00;;;;;;;6.72;3.00;;;20.30;99.90;;;;;;5044633;28;20407;-76
2022/06/25 08:12:26;;;;;;;7.72;3.40;;;20.40;99.90;;;;;;5050537;28;20065;-76
2022/06/25 08:14:52;;;;;;;6.13;2.97;;;20.40;99.90;;;;;;5033260;28;20040;-76
2022/06/25 08:17:18;;;;;;;6.57;3.00;;;20.50;99.90;;;;;;5051853;28;20091;-76
2022/06/25 08:19:44;;;;;;;4.82;2.88;;;20.50;99.90;;;;;;5038871;28;20080;-76
2022/06/25 08:22:11;;;;;;;6.03;3.10;;;20.50;99.90;;;;;;5047402;28;20029;-76
2022/06/25 08:24:36;;;;;;;6.10;3.20;;;20.70;99.90;;;;;;5051639;28;20048;-76
2022/06/25 08:27:02;;;;;;;5.80;3.58;;;20.80;99.90;;;;;;5029833;28;20507;-76
2022/06/25 08:29:28;;;;;;;6.13;2.90;;;21.00;99.90;;;;;;5049064;28;20124;-76
2022/06/25 08:31:54;;;;;;;5.43;2.85;;;21.20;99.90;;;;;;5048114;28;20040;-76
2022/06/25 08:34:20;;;;;;;4.22;2.92;;;21.20;99.90;;;;;;5032981;28;20042;-76
2022/06/25 08:36:45;;;;;;;5.88;2.88;;;21.20;99.90;;;;;;5042903;28;20048;-76
2022/06/25 08:39:11;;;;;;;5.05;3.13;;;21.40;99.90;;;;;;5051852;28;20040;-76
2022/06/25 08:41:37;;;;;;;4.88;2.38;;;21.60;99.90;;;;;;5064093;28;20095;-76
2022/06/25 08:44:03;;;;;;;5.63;2.47;;;21.70;99.90;;;;;;5048625;28;20037;-76
2022/06/25 08:46:30;;;;;;;6.70;2.60;;;22.00;99.90;;;;;;5064732;28;20049;-76
2022/06/25 08:48:56;;;;;;;5.82;2.90;;;22.20;99.90;;;;;;5041018;28;20045;-76
2022/06/25 08:51:26;;;;;;;5.40;2.80;;;22.50;99.90;;;;;;5049247;28;20048;-76
2022/06/25 08:53:53;;;;;;;5.95;2.50;;;22.80;99.90;;;;;;5021999;28;20036;-76
2022/06/25 08:56:19;;;;;;;4.43;2.80;;;22.90;99.90;;;;;;5036746;28;20149;-76
2022/06/25 08:58:45;;;;;;;4.47;2.50;;;23.00;99.90;;;;;;5048230;28;20068;-76
2022/06/25 09:01:11;;;;;;;3.38;2.08;;;23.20;99.90;;;;;;5051722;28;20067;-74
2022/06/25 09:03:39;;;;;;;3.60;2.00;;;23.40;99.90;;;;;;5041275;28;20045;-76
2022/06/25 09:06:13;;;;;;;2.97;1.63;;;23.50;99.90;;;;;;5038927;28;20548;-76
2022/06/25 09:08:39;;;;;;;3.08;1.80;;;23.70;99.90;;;;;;5034569;28;20036;-76
2022/06/25 09:11:05;;;;;;;3.05;1.80;;;23.70;99.90;;;;;;5046542;28;20480;-75
2022/06/25 09:13:31;;;;;;;5.32;1.73;;;23.70;99.90;;;;;;5050812;28;20047;-76
2022/06/25 09:15:57;;;;;;;3.55;1.80;;;23.60;99.90;;;;;;5051964;28;20045;-76
2022/06/25 09:18:22;;;;;;;4.68;2.03;;;23.50;99.90;;;;;;5039075;28;20049;-76
2022/06/25 09:20:59;;;;;;;3.13;1.40;;;23.50;99.90;;;;;;5045740;28;20041;-75
2022/06/25 09:23:30;;;;;;;3.58;1.50;;;23.60;99.90;;;;;;5042656;28;20037;-76
2022/06/25 09:26:08;;;;;;;4.28;1.67;;;23.70;99.90;;;;;;5043806;28;20049;-76
2022/06/25 09:28:36;;;;;;;3.47;1.70;;;23.80;99.90;;;;;;5039618;28;20045;-76
2022/06/25 09:31:02;;;;;;;4.47;2.03;;;23.80;99.90;;;;;;5044600;28;20558;-76
2022/06/25 09:33:30;;;;;;;2.83;1.40;;;23.90;99.90;;;;;;5052628;28;20041;-76
2022/06/25 09:35:56;;;;;;;3.60;1.50;;;24.00;99.90;;;;;;5040425;28;20400;-76
2022/06/25 09:38:24;;;;;;;3.58;1.52;;;24.10;99.90;;;;;;5047826;28;20083;-76
2022/06/25 09:40:58;;;;;;;3.17;1.70;;;24.20;99.90;;;;;;5066840;28;20455;-76
2022/06/25 09:43:28;;;;;;;3.38;1.50;;;24.40;99.70;;;;;;5048431;28;20451;-76
2022/06/25 09:46:01;;;;;;;2.20;1.50;;;24.40;99.60;;;;;;5043948;28;20045;-76
2022/06/25 09:48:29;;;;;;;2.50;1.35;;;24.40;99.40;;;;;;5047734;28;20053;-75
2022/06/25 09:51:19;;;;;;;6.28;1.63;;;24.60;99.90;;;;;;5061585;28;20029;-76
2022/06/25 09:53:56;;;;;;;3.70;1.50;;;24.90;97.70;;;;;;5039215;28;20087;-76
2022/06/25 09:56:31;;;;;;;4.97;1.60;;;25.10;98.40;;;;;;5040205;28;20095;-76
2022/06/25 09:58:57;;;;;;;3.78;1.50;;;25.10;98.70;;;;;;5042531;28;20045;-76
2022/06/25 10:01:28;;;;;;;5.43;1.60;;;25.00;97.90;;;;;;5048056;28;20045;-76
2022/06/25 10:03:54;;;;;;;3.85;1.60;;;25.00;96.90;;;;;;5027017;28;20037;-76
2022/06/25 10:06:21;;;;;;;2.13;1.30;;;25.00;97.30;;;;;;5030756;28;20120;-76
2022/06/25 10:09:02;;;;;;;3.47;1.60;;;24.90;97.00;;;;;;5045072;28;20042;-76
2022/06/25 10:11:30;;;;;;;4.40;1.95;;;24.90;97.60;;;;;;5049427;28;20048;-75
2022/06/25 10:13:56;;;;;;;2.85;1.55;;;25.10;97.60;;;;;;5052283;28;20037;-76
2022/06/25 10:16:24;;;;;;;3.78;1.80;;;25.30;97.10;;;;;;5047974;28;20041;-75
2022/06/25 10:18:50;;;;;;;3.20;1.65;;;25.30;96.70;;;;;;5040002;28;20045;-76
2022/06/25 10:21:17;;;;;;;3.47;1.63;;;25.30;96.50;;;;;;5039732;28;20068;-75
2022/06/25 10:23:44;;;;;;;5.07;1.85;;;25.10;96.20;;;;;;5044333;28;20047;-76
2022/06/25 10:26:11;;;;;;;3.70;1.90;;;24.80;96.30;;;;;;5034555;28;20559;-76
2022/06/25 10:28:36;;;;;;;7.70;2.15;;;24.60;96.70;;;;;;5049646;28;20492;-76
2022/06/25 10:31:17;;;;;;;2.83;1.73;;;24.40;97.00;;;;;;5047520;28;20056;-76
2022/06/25 10:34:05;;;;;;;4.63;1.80;;;24.50;97.10;;;;;;5033889;28;20044;-76
2022/06/25 10:36:48;;;;;;;3.90;1.90;;;24.60;96.00;;;;;;5064690;28;20400;-76
2022/06/25 10:39:23;;;;;;;6.38;1.92;;;24.40;96.10;;;;;;5042966;28;20111;-77
2022/06/25 10:45:28;;;;;;;6.65;1.95;;;23.80;96.40;;;;;;5035060;28;20451;-76
2022/06/25 10:47:58;;;;;;;4.15;1.70;;;23.60;96.60;;;;;;5031275;28;20130;-77
2022/06/25 10:50:25;;;;;;;4.30;1.73;;;23.50;97.30;;;;;;5051428;28;20514;-76
2022/06/25 10:53:06;;;;;;;6.43;2.00;;;23.70;98.00;;;;;;5060391;28;20049;-76
2022/06/25 10:55:34;;;;;;;4.43;1.77;;;24.00;97.60;;;;;;5048389;28;20041;-76
2022/06/25 10:58:15;;;;;;;10.18;1.80;;;24.00;97.30;;;;;;5049855;28;20045;-76
2022/06/25 11:01:01;;;;;;;4.15;1.60;;;23.90;97.10;;;;;;5047545;28;20052;-76
2022/06/25 11:03:32;;;;;;;1.98;1.52;;;23.80;97.10;;;;;;5053546;28;20059;-76
2022/06/25 11:06:28;;;;;;;2.80;1.70;;;23.60;97.50;;;;;;5026592;28;20045;-74
2022/06/25 11:08:55;;;;;;;3.67;1.65;;;23.50;98.10;;;;;;5072187;28;20071;-76
2022/06/25 11:11:30;;;;;;;3.45;1.88;;;23.40;98.30;;;;;;5047546;28;20038;-77
2022/06/25 11:13:57;;;;;;;3.50;1.80;;;23.20;98.30;;;;;;5047269;28;20048;-77
2022/06/25 11:16:24;;;;;;;3.25;1.70;;;23.10;98.60;;;;;;5048957;28;20124;-75
2022/06/25 11:18:53;;;;;;;4.50;2.08;;;23.10;98.80;;;;;;5043274;28;20405;-76
2022/06/25 11:21:29;;;;;;;4.15;1.60;;;23.10;98.90;;;;;;5049770;28;20045;-76
2022/06/25 11:24:21;;;;;;;3.58;1.60;;;23.10;99.30;;;;;;5046163;28;20519;-76
2022/06/25 11:29:36;;;;;;;4.97;2.15;;;23.10;99.40;;;;;;5047116;28;20007;-76
2022/06/25 11:32:02;;;;;;;4.00;2.28;;;23.00;99.60;;;;;;5046496;28;20067;-76
2022/06/25 11:34:29;;;;;;;3.70;2.47;;;23.00;99.90;;;;;;5046105;28;20037;-76
2022/06/25 11:37:01;;;;;;;3.25;1.92;;;23.00;99.90;;;;;;5049387;28;20047;-76
2022/06/25 11:39:29;;;;;;;4.88;2.28;;;23.10;99.90;;;;;;5031241;28;20076;-76
2022/06/25 11:41:55;;;;;;;3.33;1.98;;;23.30;99.90;;;;;;5032908;28;20077;-76
2022/06/25 11:44:21;;;;;;;6.38;1.70;;;23.50;99.90;;;;;;5048287;28;20041;-77
2022/06/25 11:46:48;;;;;;;4.93;2.15;;;23.60;99.90;;;;;;5048568;28;20048;-76
2022/06/25 11:49:16;;;;;;;4.60;2.20;;;23.70;99.90;;;;;;5047563;28;20462;-76
2022/06/25 11:51:52;;;;;;;5.20;2.30;;;23.60;99.90;;;;;;5031008;28;20037;-77
2022/06/25 11:54:24;;;;;;;3.00;1.90;;;23.60;99.90;;;;;;5032419;28;20048;-76
2022/06/25 11:56:52;;;;;;;3.20;1.92;;;23.50;99.90;;;;;;5027258;28;20112;-76
2022/06/25 11:59:29;;;;;;;4.22;2.20;;;23.30;99.90;;;;;;5042164;28;20037;-76
2022/06/25 12:01:56;;;;;;;3.78;2.15;;;23.20;99.90;;;;;;5045568;28;20416;-76
2022/06/25 12:04:22;;;;;;;3.50;2.20;;;23.10;99.90;;;;;;5042093;28;20125;-76
2022/06/25 12:06:48;;;;;;;5.22;2.15;;;22.90;99.90;;;;;;5043544;28;20045;-76
2022/06/25 12:09:16;;;;;;;4.05;2.15;;;22.80;99.90;;;;;;5039540;28;20029;-76
2022/06/25 12:11:51;;;;;;;2.95;2.17;;;22.60;99.90;;;;;;5044601;28;20041;-76
2022/06/25 12:14:23;;;;;;;4.70;2.33;;;22.60;99.90;;;;;;5050151;28;20090;-75
2022/06/25 12:16:50;;;;;;;5.43;2.15;;;22.50;99.90;;;;;;5035691;28;20095;-73
2022/06/25 12:19:18;;;;;;;3.70;2.17;;;22.40;99.90;;;;;;5044353;28;20101;-76
2022/06/25 12:21:44;;;;;;;3.03;1.95;;;22.40;99.90;;;;;;5025588;28;20087;-76
2022/06/25 12:24:16;;;;;;;2.30;2.10;;;22.50;99.90;;;;;;5049505;28;20037;-76
2022/06/25 12:26:51;;;;;;;4.03;2.10;;;22.50;99.90;;;;;;5029962;28;20064;-76
2022/06/25 12:29:24;;;;;;;4.18;1.88;;;22.60;99.90;;;;;;5052590;28;20072;-76
2022/06/25 12:32:01;;;;;;;4.20;1.90;;;22.70;99.90;;;;;;5052814;28;20037;-76
2022/06/25 12:34:27;;;;;;;4.13;1.88;;;23.00;99.90;;;;;;5050556;28;20037;-76
2022/06/25 12:36:54;;;;;;;3.42;2.25;;;23.20;99.90;;;;;;5049205;28;20274;-76
2022/06/25 12:39:35;;;;;;;2.40;1.98;;;23.40;99.90;;;;;;5043920;28;20053;-76
2022/06/25 12:42:12;;;;;;;3.80;2.20;;;23.50;99.90;;;;;;5043873;28;20037;-76
2022/06/25 12:44:40;;;;;;;4.00;1.98;;;23.50;99.90;;;;;;5036872;28;20394;-76
2022/06/25 12:47:08;;;;;;;6.90;2.25;;;23.50;99.90;;;;;;5045157;28;20098;-76
2022/06/25 12:49:45;;;;;;;3.30;2.42;;;23.50;99.90;;;;;;5052268;28;20041;-76
2022/06/25 12:52:12;;;;;;;3.83;2.03;;;23.40;99.90;;;;;;5052181;28;20067;-76
2022/06/25 12:54:48;;;;;;;4.35;2.50;;;23.40;99.90;;;;;;5069679;22;20121;-65
2022/06/25 12:57:25;;;;;;;3.25;2.38;;;23.30;99.90;;;;;;5048329;28;20041;-66
2022/06/25 12:59:51;;;;;;;3.10;2.05;;;23.30;99.90;;;;;;5049949;28;20049;-63